sensor_id;sensor_type;location;lat;lon;timestamp;P1;durP1;ratioP1;P2;durP2;ratioP2
71360;SDS011;59166;48.908;1.870;2023-12-20T00:01:19;8.20;;;1.45;;
71360;SDS011;59166;48.908;1.870;2023-12-20T00:06:20;5.80;;;1.20;;
71360;SDS011;59166;48.908;1.870;2023-12-20T00:11:22;6.68;;;1.40;;
71360;SDS011;59166;48.908;1.870;2023-12-20T00:16:23;4.00;;;1.10;;
71360;SDS011;59166;48.908;1.870;2023-12-20T00:21:23;10.27;;;1.40;;
71360;SDS011;59166;48.908;1.870;2023-12-20T00:26:25;7.50;;;1.33;;
71360;SDS011;59166;48.908;1.870;2023-12-20T00:31:26;5.93;;;1.27;;
71360;SDS011;59166;48.908;1.870;2023-12-20T00:36:26;6.97;;;1.47;;
71360;SDS011;59166;48.908;1.870;2023-12-20T00:41:28;6.73;;;1.50;;
71360;SDS011;59166;48.908;1.870;2023-12-20T00:46:29;7.93;;;1.38;;
71360;SDS011;59166;48.908;1.870;2023-12-20T00:51:30;5.27;;;1.20;;
71360;SDS011;59166;48.908;1.870;2023-12-20T00:56:32;5.87;;;1.43;;
71360;SDS011;59166;48.908;1.870;2023-12-20T01:01:32;7.47;;;1.40;;
71360;SDS011;59166;48.908;1.870;2023-12-20T01:06:33;7.13;;;1.30;;
71360;SDS011;59166;48.908;1.870;2023-12-20T01:11:35;5.93;;;1.33;;
71360;SDS011;59166;48.908;1.870;2023-12-20T01:16:35;8.23;;;1.20;;
71360;SDS011;59166;48.908;1.870;2023-12-20T01:21:36;9.47;;;1.50;;
71360;SDS011;59166;48.908;1.870;2023-12-20T01:26:38;8.70;;;1.50;;
71360;SDS011;59166;48.908;1.870;2023-12-20T01:31:39;7.93;;;1.40;;
71360;SDS011;59166;48.908;1.870;2023-12-20T01:36:39;6.03;;;1.30;;
71360;SDS011;59166;48.908;1.870;2023-12-20T01:41:42;5.43;;;1.33;;
71360;SDS011;59166;48.908;1.870;2023-12-20T01:46:42;8.88;;;1.45;;
71360;SDS011;59166;48.908;1.870;2023-12-20T01:51:43;7.93;;;1.53;;
71360;SDS011;59166;48.908;1.870;2023-12-20T01:56:45;10.68;;;1.58;;
71360;SDS011;59166;48.908;1.870;2023-12-20T02:01:46;6.70;;;1.20;;
71360;SDS011;59166;48.908;1.870;2023-12-20T02:06:47;7.73;;;1.40;;
71360;SDS011;59166;48.908;1.870;2023-12-20T02:11:51;5.05;;;1.40;;
71360;SDS011;59166;48.908;1.870;2023-12-20T02:16:52;8.07;;;1.35;;
71360;SDS011;59166;48.908;1.870;2023-12-20T02:22:05;6.67;;;1.50;;
71360;SDS011;59166;48.908;1.870;2023-12-20T02:27:07;5.83;;;1.27;;
71360;SDS011;59166;48.908;1.870;2023-12-20T02:32:08;5.73;;;1.27;;
71360;SDS011;59166;48.908;1.870;2023-12-20T02:37:10;7.73;;;1.47;;
71360;SDS011;59166;48.908;1.870;2023-12-20T02:42:10;7.15;;;1.20;;
71360;SDS011;59166;48.908;1.870;2023-12-20T02:47:11;6.70;;;1.40;;
71360;SDS011;59166;48.908;1.870;2023-12-20T02:52:13;6.30;;;1.40;;
71360;SDS011;59166;48.908;1.870;2023-12-20T02:57:14;5.07;;;1.20;;
71360;SDS011;59166;48.908;1.870;2023-12-20T03:02:14;5.13;;;1.10;;
71360;SDS011;59166;48.908;1.870;2023-12-20T03:07:16;6.10;;;0.90;;
71360;SDS011;59166;48.908;1.870;2023-12-20T03:12:17;6.83;;;1.00;;
71360;SDS011;59166;48.908;1.870;2023-12-20T03:17:17;6.70;;;1.30;;
71360;SDS011;59166;48.908;1.870;2023-12-20T03:22:19;6.77;;;1.30;;
71360;SDS011;59166;48.908;1.870;2023-12-20T03:27:20;5.00;;;1.20;;
71360;SDS011;59166;48.908;1.870;2023-12-20T03:32:20;5.63;;;1.30;;
71360;SDS011;59166;48.908;1.870;2023-12-20T03:37:23;7.27;;;1.17;;
71360;SDS011;59166;48.908;1.870;2023-12-20T03:42:23;7.18;;;1.33;;
71360;SDS011;59166;48.908;1.870;2023-12-20T03:47:24;8.17;;;1.40;;
71360;SDS011;59166;48.908;1.870;2023-12-20T03:52:26;8.40;;;1.40;;
71360;SDS011;59166;48.908;1.870;2023-12-20T03:57:27;7.47;;;1.40;;
71360;SDS011;59166;48.908;1.870;2023-12-20T04:02:27;6.50;;;1.20;;
71360;SDS011;59166;48.908;1.870;2023-12-20T04:07:29;10.90;;;1.57;;
71360;SDS011;59166;48.908;1.870;2023-12-20T04:12:30;7.55;;;1.23;;
71360;SDS011;59166;48.908;1.870;2023-12-20T04:17:31;5.83;;;1.17;;
71360;SDS011;59166;48.908;1.870;2023-12-20T04:22:33;7.72;;;1.10;;
71360;SDS011;59166;48.908;1.870;2023-12-20T04:27:33;6.93;;;1.10;;
71360;SDS011;59166;48.908;1.870;2023-12-20T04:32:34;4.85;;;1.27;;
71360;SDS011;59166;48.908;1.870;2023-12-20T04:37:36;9.63;;;1.60;;
71360;SDS011;59166;48.908;1.870;2023-12-20T04:42:36;6.03;;;1.20;;
71360;SDS011;59166;48.908;1.870;2023-12-20T04:47:37;5.90;;;1.00;;
71360;SDS011;59166;48.908;1.870;2023-12-20T04:52:39;6.87;;;1.10;;
71360;SDS011;59166;48.908;1.870;2023-12-20T04:57:40;6.53;;;1.27;;
71360;SDS011;59166;48.908;1.870;2023-12-20T05:02:40;9.80;;;1.13;;
71360;SDS011;59166;48.908;1.870;2023-12-20T05:07:42;8.00;;;1.20;;
71360;SDS011;59166;48.908;1.870;2023-12-20T05:12:43;6.63;;;1.20;;
71360;SDS011;59166;48.908;1.870;2023-12-20T05:17:44;8.10;;;1.50;;
71360;SDS011;59166;48.908;1.870;2023-12-20T05:22:46;5.82;;;1.10;;
71360;SDS011;59166;48.908;1.870;2023-12-20T05:27:46;8.93;;;1.20;;
71360;SDS011;59166;48.908;1.870;2023-12-20T05:32:47;9.60;;;1.25;;
71360;SDS011;59166;48.908;1.870;2023-12-20T05:37:49;4.93;;;1.00;;
71360;SDS011;59166;48.908;1.870;2023-12-20T05:42:50;8.25;;;1.20;;
71360;SDS011;59166;48.908;1.870;2023-12-20T05:47:52;3.70;;;0.83;;
71360;SDS011;59166;48.908;1.870;2023-12-20T05:52:54;8.38;;;1.40;;
71360;SDS011;59166;48.908;1.870;2023-12-20T05:57:55;9.37;;;1.50;;
71360;SDS011;59166;48.908;1.870;2023-12-20T06:02:55;9.55;;;1.90;;
71360;SDS011;59166;48.908;1.870;2023-12-20T06:07:57;10.63;;;2.57;;
71360;SDS011;59166;48.908;1.870;2023-12-20T06:12:58;14.65;;;3.15;;
71360;SDS011;59166;48.908;1.870;2023-12-20T06:17:58;14.63;;;2.80;;
71360;SDS011;59166;48.908;1.870;2023-12-20T06:23:00;12.97;;;2.50;;
71360;SDS011;59166;48.908;1.870;2023-12-20T06:28:01;8.65;;;2.00;;
71360;SDS011;59166;48.908;1.870;2023-12-20T06:33:02;7.40;;;1.40;;
71360;SDS011;59166;48.908;1.870;2023-12-20T06:38:04;7.63;;;1.60;;
71360;SDS011;59166;48.908;1.870;2023-12-20T06:43:04;7.03;;;1.40;;
71360;SDS011;59166;48.908;1.870;2023-12-20T06:48:05;5.80;;;1.20;;
71360;SDS011;59166;48.908;1.870;2023-12-20T06:53:07;8.47;;;1.43;;
71360;SDS011;59166;48.908;1.870;2023-12-20T06:58:08;7.07;;;1.60;;
71360;SDS011;59166;48.908;1.870;2023-12-20T07:03:09;8.60;;;1.60;;
71360;SDS011;59166;48.908;1.870;2023-12-20T07:08:11;12.43;;;2.03;;
71360;SDS011;59166;48.908;1.870;2023-12-20T07:13:11;9.73;;;1.37;;
71360;SDS011;59166;48.908;1.870;2023-12-20T07:18:13;7.10;;;1.42;;
71360;SDS011;59166;48.908;1.870;2023-12-20T07:23:15;8.70;;;1.70;;
71360;SDS011;59166;48.908;1.870;2023-12-20T07:28:15;6.80;;;1.33;;
71360;SDS011;59166;48.908;1.870;2023-12-20T07:33:16;6.67;;;1.30;;
71360;SDS011;59166;48.908;1.870;2023-12-20T07:38:18;7.43;;;1.50;;
71360;SDS011;59166;48.908;1.870;2023-12-20T07:43:18;7.35;;;1.50;;
71360;SDS011;59166;48.908;1.870;2023-12-20T07:48:19;7.00;;;1.40;;
71360;SDS011;59166;48.908;1.870;2023-12-20T07:53:21;8.73;;;1.60;;
71360;SDS011;59166;48.908;1.870;2023-12-20T07:58:22;7.83;;;1.50;;
71360;SDS011;59166;48.908;1.870;2023-12-20T08:03:22;10.45;;;1.55;;
71360;SDS011;59166;48.908;1.870;2023-12-20T08:08:24;7.97;;;1.20;;
71360;SDS011;59166;48.908;1.870;2023-12-20T08:13:25;7.03;;;1.30;;
71360;SDS011;59166;48.908;1.870;2023-12-20T08:18:26;7.37;;;1.20;;
71360;SDS011;59166;48.908;1.870;2023-12-20T08:23:27;9.97;;;1.53;;
71360;SDS011;59166;48.908;1.870;2023-12-20T08:28:28;7.53;;;1.60;;
71360;SDS011;59166;48.908;1.870;2023-12-20T08:33:29;9.07;;;1.77;;
71360;SDS011;59166;48.908;1.870;2023-12-20T08:38:31;7.90;;;1.73;;
71360;SDS011;59166;48.908;1.870;2023-12-20T08:43:31;10.05;;;1.90;;
71360;SDS011;59166;48.908;1.870;2023-12-20T08:48:32;8.10;;;1.70;;
71360;SDS011;59166;48.908;1.870;2023-12-20T08:53:34;10.85;;;1.80;;
71360;SDS011;59166;48.908;1.870;2023-12-20T08:58:34;9.57;;;2.10;;
71360;SDS011;59166;48.908;1.870;2023-12-20T09:03:35;8.80;;;2.10;;
71360;SDS011;59166;48.908;1.870;2023-12-20T09:08:37;8.20;;;2.17;;
71360;SDS011;59166;48.908;1.870;2023-12-20T09:13:38;10.57;;;2.10;;
71360;SDS011;59166;48.908;1.870;2023-12-20T09:18:38;14.38;;;2.20;;
71360;SDS011;59166;48.908;1.870;2023-12-20T09:23:40;15.33;;;1.97;;
71360;SDS011;59166;48.908;1.870;2023-12-20T09:28:41;13.73;;;1.67;;
71360;SDS011;59166;48.908;1.870;2023-12-20T09:33:41;9.40;;;1.90;;
71360;SDS011;59166;48.908;1.870;2023-12-20T09:38:43;11.70;;;2.20;;
71360;SDS011;59166;48.908;1.870;2023-12-20T09:43:44;10.85;;;2.22;;
71360;SDS011;59166;48.908;1.870;2023-12-20T09:48:44;8.50;;;1.80;;
71360;SDS011;59166;48.908;1.870;2023-12-20T09:53:46;11.70;;;2.40;;
71360;SDS011;59166;48.908;1.870;2023-12-20T09:58:48;13.15;;;2.03;;
71360;SDS011;59166;48.908;1.870;2023-12-20T10:03:49;6.63;;;1.63;;
71360;SDS011;59166;48.908;1.870;2023-12-20T10:08:55;8.73;;;1.70;;
71360;SDS011;59166;48.908;1.870;2023-12-20T10:13:58;13.43;;;1.83;;
71360;SDS011;59166;48.908;1.870;2023-12-20T10:18:59;4.60;;;0.80;;
71360;SDS011;59166;48.908;1.870;2023-12-20T10:24:02;7.22;;;1.60;;
71360;SDS011;59166;48.908;1.870;2023-12-20T10:29:03;9.53;;;1.60;;
71360;SDS011;59166;48.908;1.870;2023-12-20T10:34:05;9.33;;;1.50;;
71360;SDS011;59166;48.908;1.870;2023-12-20T10:39:07;11.70;;;1.70;;
71360;SDS011;59166;48.908;1.870;2023-12-20T10:44:10;11.43;;;1.90;;
71360;SDS011;59166;48.908;1.870;2023-12-20T10:49:12;8.95;;;2.35;;
71360;SDS011;59166;48.908;1.870;2023-12-20T10:54:16;5.95;;;1.40;;
71360;SDS011;59166;48.908;1.870;2023-12-20T10:59:16;14.30;;;2.07;;
71360;SDS011;59166;48.908;1.870;2023-12-20T11:04:20;11.73;;;2.33;;
71360;SDS011;59166;48.908;1.870;2023-12-20T11:09:29;12.40;;;1.90;;
71360;SDS011;59166;48.908;1.870;2023-12-20T11:14:38;6.83;;;1.57;;
71360;SDS011;59166;48.908;1.870;2023-12-20T11:25:11;11.43;;;1.60;;
71360;SDS011;59166;48.908;1.870;2023-12-20T11:30:12;11.77;;;2.20;;
71360;SDS011;59166;48.908;1.870;2023-12-20T11:35:17;14.47;;;1.63;;
71360;SDS011;59166;48.908;1.870;2023-12-20T11:40:20;12.20;;;1.80;;
71360;SDS011;59166;48.908;1.870;2023-12-20T11:45:23;9.30;;;1.50;;
71360;SDS011;59166;48.908;1.870;2023-12-20T11:50:25;8.03;;;1.40;;
71360;SDS011;59166;48.908;1.870;2023-12-20T11:55:27;12.40;;;1.48;;
71360;SDS011;59166;48.908;1.870;2023-12-20T12:00:28;6.95;;;1.50;;
71360;SDS011;59166;48.908;1.870;2023-12-20T12:05:30;10.13;;;1.50;;
71360;SDS011;59166;48.908;1.870;2023-12-20T12:10:32;6.88;;;1.23;;
71360;SDS011;59166;48.908;1.870;2023-12-20T12:15:33;11.60;;;2.00;;
71360;SDS011;59166;48.908;1.870;2023-12-20T12:20:33;10.80;;;2.40;;
71360;SDS011;59166;48.908;1.870;2023-12-20T12:25:36;13.83;;;1.80;;
71360;SDS011;59166;48.908;1.870;2023-12-20T12:30:37;12.50;;;2.28;;
71360;SDS011;59166;48.908;1.870;2023-12-20T12:35:43;7.50;;;1.80;;
71360;SDS011;59166;48.908;1.870;2023-12-20T12:40:48;7.57;;;1.60;;
71360;SDS011;59166;48.908;1.870;2023-12-20T12:45:58;7.53;;;1.67;;
71360;SDS011;59166;48.908;1.870;2023-12-20T12:51:02;10.60;;;1.70;;
71360;SDS011;59166;48.908;1.870;2023-12-20T13:06:58;9.68;;;1.50;;
71360;SDS011;59166;48.908;1.870;2023-12-20T13:17:48;6.07;;;1.15;;
71360;SDS011;59166;48.908;1.870;2023-12-20T13:22:59;12.35;;;1.30;;
71360;SDS011;59166;48.908;1.870;2023-12-20T13:28:43;4.03;;;1.10;;
71360;SDS011;59166;48.908;1.870;2023-12-20T13:33:56;6.83;;;1.20;;
71360;SDS011;59166;48.908;1.870;2023-12-20T13:39:35;8.13;;;1.00;;
71360;SDS011;59166;48.908;1.870;2023-12-20T13:44:44;9.20;;;1.20;;
71360;SDS011;59166;48.908;1.870;2023-12-20T13:50:00;6.73;;;1.00;;
71360;SDS011;59166;48.908;1.870;2023-12-20T13:55:16;8.60;;;1.60;;
71360;SDS011;59166;48.908;1.870;2023-12-20T14:00:23;8.95;;;1.30;;
71360;SDS011;59166;48.908;1.870;2023-12-20T14:05:50;7.23;;;1.23;;
71360;SDS011;59166;48.908;1.870;2023-12-20T14:11:02;10.13;;;1.40;;
71360;SDS011;59166;48.908;1.870;2023-12-20T14:16:06;5.65;;;1.30;;
71360;SDS011;59166;48.908;1.870;2023-12-20T14:21:34;7.90;;;1.30;;
71360;SDS011;59166;48.908;1.870;2023-12-20T14:32:13;7.30;;;1.20;;
71360;SDS011;59166;48.908;1.870;2023-12-20T14:43:07;7.47;;;1.10;;
71360;SDS011;59166;48.908;1.870;2023-12-20T14:48:25;7.28;;;1.15;;
71360;SDS011;59166;48.908;1.870;2023-12-20T14:53:27;6.82;;;1.55;;
71360;SDS011;59166;48.908;1.870;2023-12-20T14:58:28;7.73;;;1.33;;
71360;SDS011;59166;48.908;1.870;2023-12-20T15:03:29;6.43;;;1.20;;
71360;SDS011;59166;48.908;1.870;2023-12-20T15:08:31;7.00;;;1.40;;
71360;SDS011;59166;48.908;1.870;2023-12-20T15:13:31;8.32;;;1.30;;
71360;SDS011;59166;48.908;1.870;2023-12-20T15:18:32;6.57;;;1.33;;
71360;SDS011;59166;48.908;1.870;2023-12-20T15:23:34;5.63;;;1.30;;
71360;SDS011;59166;48.908;1.870;2023-12-20T15:28:35;9.83;;;1.40;;
71360;SDS011;59166;48.908;1.870;2023-12-20T15:33:36;7.28;;;1.65;;
71360;SDS011;59166;48.908;1.870;2023-12-20T15:38:38;9.73;;;1.30;;
71360;SDS011;59166;48.908;1.870;2023-12-20T15:43:38;5.85;;;1.10;;
71360;SDS011;59166;48.908;1.870;2023-12-20T15:48:39;8.37;;;1.83;;
71360;SDS011;59166;48.908;1.870;2023-12-20T15:53:41;4.63;;;1.20;;
71360;SDS011;59166;48.908;1.870;2023-12-20T15:58:42;6.45;;;1.55;;
71360;SDS011;59166;48.908;1.870;2023-12-20T16:03:42;7.97;;;1.30;;
71360;SDS011;59166;48.908;1.870;2023-12-20T16:08:44;7.60;;;1.58;;
71360;SDS011;59166;48.908;1.870;2023-12-20T16:13:45;9.83;;;1.43;;
71360;SDS011;59166;48.908;1.870;2023-12-20T16:18:46;9.63;;;1.20;;
71360;SDS011;59166;48.908;1.870;2023-12-20T16:23:47;9.33;;;1.17;;
71360;SDS011;59166;48.908;1.870;2023-12-20T16:28:48;6.43;;;1.08;;
71360;SDS011;59166;48.908;1.870;2023-12-20T16:33:49;7.80;;;1.23;;
71360;SDS011;59166;48.908;1.870;2023-12-20T16:38:51;6.30;;;1.10;;
71360;SDS011;59166;48.908;1.870;2023-12-20T16:43:51;5.93;;;1.20;;
71360;SDS011;59166;48.908;1.870;2023-12-20T16:48:52;8.90;;;1.30;;
71360;SDS011;59166;48.908;1.870;2023-12-20T16:53:54;6.93;;;1.33;;
71360;SDS011;59166;48.908;1.870;2023-12-20T16:58:54;6.18;;;1.40;;
71360;SDS011;59166;48.908;1.870;2023-12-20T17:03:55;7.20;;;1.17;;
71360;SDS011;59166;48.908;1.870;2023-12-20T17:08:57;5.73;;;1.20;;
71360;SDS011;59166;48.908;1.870;2023-12-20T17:13:57;7.63;;;1.35;;
71360;SDS011;59166;48.908;1.870;2023-12-20T17:18:58;4.37;;;1.00;;
71360;SDS011;59166;48.908;1.870;2023-12-20T17:24:00;6.53;;;1.40;;
71360;SDS011;59166;48.908;1.870;2023-12-20T17:29:00;4.85;;;1.10;;
71360;SDS011;59166;48.908;1.870;2023-12-20T17:34:01;3.90;;;1.10;;
71360;SDS011;59166;48.908;1.870;2023-12-20T17:39:03;7.07;;;1.33;;
71360;SDS011;59166;48.908;1.870;2023-12-20T17:44:04;8.30;;;1.90;;
71360;SDS011;59166;48.908;1.870;2023-12-20T17:49:04;7.22;;;1.63;;
71360;SDS011;59166;48.908;1.870;2023-12-20T17:54:06;8.77;;;1.67;;
71360;SDS011;59166;48.908;1.870;2023-12-20T17:59:07;6.93;;;1.47;;
71360;SDS011;59166;48.908;1.870;2023-12-20T18:04:07;7.82;;;1.63;;
71360;SDS011;59166;48.908;1.870;2023-12-20T18:09:09;6.57;;;1.53;;
71360;SDS011;59166;48.908;1.870;2023-12-20T18:14:10;6.40;;;1.67;;
71360;SDS011;59166;48.908;1.870;2023-12-20T18:19:10;9.50;;;1.73;;
71360;SDS011;59166;48.908;1.870;2023-12-20T18:24:12;9.77;;;2.10;;
71360;SDS011;59166;48.908;1.870;2023-12-20T18:29:13;8.25;;;2.20;;
71360;SDS011;59166;48.908;1.870;2023-12-20T18:34:13;9.20;;;2.20;;
71360;SDS011;59166;48.908;1.870;2023-12-20T18:39:15;7.00;;;1.50;;
71360;SDS011;59166;48.908;1.870;2023-12-20T18:44:16;5.85;;;1.50;;
71360;SDS011;59166;48.908;1.870;2023-12-20T18:49:17;10.43;;;1.90;;
71360;SDS011;59166;48.908;1.870;2023-12-20T18:54:19;7.23;;;1.70;;
71360;SDS011;59166;48.908;1.870;2023-12-20T18:59:19;7.03;;;1.70;;
71360;SDS011;59166;48.908;1.870;2023-12-20T19:04:20;7.72;;;1.77;;
71360;SDS011;59166;48.908;1.870;2023-12-20T19:09:22;7.10;;;1.70;;
71360;SDS011;59166;48.908;1.870;2023-12-20T19:14:23;7.03;;;1.80;;
71360;SDS011;59166;48.908;1.870;2023-12-20T19:19:23;8.87;;;1.90;;
71360;SDS011;59166;48.908;1.870;2023-12-20T19:24:25;7.97;;;1.80;;
71360;SDS011;59166;48.908;1.870;2023-12-20T19:29:26;6.93;;;1.77;;
71360;SDS011;59166;48.908;1.870;2023-12-20T19:34:26;10.23;;;2.80;;
71360;SDS011;59166;48.908;1.870;2023-12-20T19:39:28;6.17;;;1.60;;
71360;SDS011;59166;48.908;1.870;2023-12-20T19:44:29;7.75;;;1.58;;
71360;SDS011;59166;48.908;1.870;2023-12-20T19:49:30;8.30;;;1.90;;
71360;SDS011;59166;48.908;1.870;2023-12-20T19:54:32;5.57;;;1.50;;
71360;SDS011;59166;48.908;1.870;2023-12-20T19:59:32;7.82;;;1.90;;
71360;SDS011;59166;48.908;1.870;2023-12-20T20:04:33;8.27;;;1.70;;
71360;SDS011;59166;48.908;1.870;2023-12-20T20:09:35;8.38;;;1.88;;
71360;SDS011;59166;48.908;1.870;2023-12-20T20:14:36;7.77;;;1.90;;
71360;SDS011;59166;48.908;1.870;2023-12-20T20:19:37;6.18;;;1.70;;
71360;SDS011;59166;48.908;1.870;2023-12-20T20:24:39;9.97;;;3.00;;
71360;SDS011;59166;48.908;1.870;2023-12-20T20:29:39;6.25;;;1.70;;
71360;SDS011;59166;48.908;1.870;2023-12-20T20:34:40;6.50;;;1.43;;
71360;SDS011;59166;48.908;1.870;2023-12-20T20:39:42;5.87;;;1.30;;
71360;SDS011;59166;48.908;1.870;2023-12-20T20:44:42;6.85;;;1.33;;
71360;SDS011;59166;48.908;1.870;2023-12-20T20:49:43;6.63;;;1.30;;
71360;SDS011;59166;48.908;1.870;2023-12-20T20:54:45;6.60;;;1.50;;
71360;SDS011;59166;48.908;1.870;2023-12-20T20:59:46;7.00;;;1.30;;
71360;SDS011;59166;48.908;1.870;2023-12-20T21:04:46;7.60;;;1.45;;
71360;SDS011;59166;48.908;1.870;2023-12-20T21:09:50;10.67;;;1.97;;
71360;SDS011;59166;48.908;1.870;2023-12-20T21:14:51;7.82;;;1.23;;
71360;SDS011;59166;48.908;1.870;2023-12-20T21:19:51;6.00;;;1.40;;
71360;SDS011;59166;48.908;1.870;2023-12-20T21:24:53;6.25;;;1.30;;
71360;SDS011;59166;48.908;1.870;2023-12-20T21:29:54;6.73;;;1.20;;
71360;SDS011;59166;48.908;1.870;2023-12-20T21:34:54;7.75;;;1.20;;
71360;SDS011;59166;48.908;1.870;2023-12-20T21:39:57;7.37;;;1.30;;
71360;SDS011;59166;48.908;1.870;2023-12-20T21:44:58;5.97;;;1.00;;
71360;SDS011;59166;48.908;1.870;2023-12-20T21:49:58;6.87;;;1.37;;
71360;SDS011;59166;48.908;1.870;2023-12-20T21:55:00;6.85;;;1.40;;
71360;SDS011;59166;48.908;1.870;2023-12-20T22:00:01;6.17;;;0.90;;
71360;SDS011;59166;48.908;1.870;2023-12-20T22:05:02;6.07;;;0.95;;
71360;SDS011;59166;48.908;1.870;2023-12-20T22:10:06;5.90;;;1.40;;
71360;SDS011;59166;48.908;1.870;2023-12-20T22:15:08;6.10;;;1.30;;
71360;SDS011;59166;48.908;1.870;2023-12-20T22:20:10;8.20;;;1.30;;
71360;SDS011;59166;48.908;1.870;2023-12-20T22:25:12;6.87;;;1.00;;
71360;SDS011;59166;48.908;1.870;2023-12-20T22:30:13;4.33;;;0.83;;
71360;SDS011;59166;48.908;1.870;2023-12-20T22:35:14;8.13;;;1.10;;
71360;SDS011;59166;48.908;1.870;2023-12-20T22:40:16;10.47;;;1.40;;
71360;SDS011;59166;48.908;1.870;2023-12-20T22:45:17;3.45;;;0.70;;
71360;SDS011;59166;48.908;1.870;2023-12-20T22:50:18;9.53;;;1.40;;
71360;SDS011;59166;48.908;1.870;2023-12-20T22:55:20;6.78;;;1.00;;
71360;SDS011;59166;48.908;1.870;2023-12-20T23:00:20;7.73;;;1.30;;
71360;SDS011;59166;48.908;1.870;2023-12-20T23:05:21;3.28;;;0.95;;
71360;SDS011;59166;48.908;1.870;2023-12-20T23:10:23;7.80;;;1.40;;
71360;SDS011;59166;48.908;1.870;2023-12-20T23:15:24;6.95;;;1.20;;
71360;SDS011;59166;48.908;1.870;2023-12-20T23:20:24;7.73;;;1.23;;
71360;SDS011;59166;48.908;1.870;2023-12-20T23:25:26;5.70;;;1.20;;
71360;SDS011;59166;48.908;1.870;2023-12-20T23:30:27;7.70;;;1.33;;
71360;SDS011;59166;48.908;1.870;2023-12-20T23:35:27;8.57;;;1.20;;
71360;SDS011;59166;48.908;1.870;2023-12-20T23:40:29;7.05;;;1.20;;
71360;SDS011;59166;48.908;1.870;2023-12-20T23:45:30;13.73;;;1.80;;
71360;SDS011;59166;48.908;1.870;2023-12-20T23:50:31;8.00;;;1.30;;
71360;SDS011;59166;48.908;1.870;2023-12-20T23:55:33;10.60;;;1.43;;
